Time;durP1;ratioP1;P1;durP2;ratioP2;P2;SDS_P1;SDS_P2;PMS_P1;PMS_P2;Temp;Humidity;BMP_temperature;BMP_pressure;BME280_temperature;BME280_humidity;BME280_pressure;Samples;Min_cycle;Max_cycle;Signal;HPM_P1;HPM_P2
2022/11/09 00:01:18;;;;;;;8.05;3.00;;;;;;;7.49;94.18;92849.75;5047533;28;20128;-76
2022/11/09 00:03:43;;;;;;;4.90;2.33;;;;;;;7.50;93.36;92846.09;5050919;28;20550;-76
2022/11/09 00:06:09;;;;;;;5.28;2.15;;;;;;;7.57;93.66;92857.06;5069041;28;20037;-76
2022/11/09 00:08:39;;;;;;;4.65;1.90;;;;;;;7.59;93.17;92846.34;5059659;28;20691;-76
2022/11/09 00:11:10;;;;;;;3.63;1.80;;;;;;;7.63;93.04;92845.63;5049855;28;20067;-76
2022/11/09 00:13:39;;;;;;;4.50;2.25;;;;;;;7.64;92.68;92841.19;5060940;28;20497;-76
2022/11/09 00:16:06;;;;;;;7.97;3.30;;;;;;;7.68;93.30;92845.63;5066396;28;20063;-76
2022/11/09 00:18:34;;;;;;;5.88;3.13;;;;;;;7.70;93.23;92856.56;5069079;28;20040;-76
2022/11/09 00:21:08;;;;;;;5.60;3.30;;;;;;;7.71;93.61;92849.53;5055793;28;20036;-76
2022/11/09 00:23:35;;;;;;;5.45;2.20;;;;;;;7.74;93.48;92843.78;5052056;28;20491;-76
2022/11/09 00:26:02;;;;;;;4.22;1.90;;;;;;;7.76;93.29;92839.09;5053091;28;20025;-76
2022/11/09 00:28:27;;;;;;;5.10;2.03;;;;;;;7.79;94.15;92840.38;5051953;28;20403;-76
2022/11/09 00:31:00;;;;;;;2.92;1.70;;;;;;;7.80;94.48;92836.75;5050532;28;20041;-76
2022/11/09 00:33:25;;;;;;;4.90;2.10;;;;;;;7.84;94.86;92843.03;5071415;28;20032;-76
2022/11/09 00:35:51;;;;;;;4.55;2.10;;;;;;;7.84;94.36;92838.59;5035472;28;20170;-76
2022/11/09 00:38:17;;;;;;;4.38;1.80;;;;;;;7.85;94.04;92837.53;5052115;28;20037;-76
2022/11/09 00:40:42;;;;;;;5.05;1.85;;;;;;;7.87;93.61;92834.69;5047253;28;20525;-76
2022/11/09 00:43:08;;;;;;;7.22;4.50;;;;;;;7.88;93.81;92842.25;5070664;28;20494;-76
2022/11/09 00:45:34;;;;;;;10.93;6.20;;;;;;;7.91;93.67;92843.53;5057525;28;20499;-76
2022/11/09 00:48:00;;;;;;;8.75;4.75;;;;;;;7.92;94.36;92845.91;5053890;28;20514;-76
2022/11/09 00:50:25;;;;;;;5.93;2.30;;;;;;;7.95;95.12;92842.00;5051782;28;20039;-75
2022/11/09 00:52:51;;;;;;;6.75;1.90;;;;;;;7.98;94.84;92838.84;5064140;28;20036;-76
2022/11/09 00:55:19;;;;;;;6.32;1.83;;;;;;;7.96;94.90;92827.91;5069516;28;20497;-76
2022/11/09 00:57:49;;;;;;;4.40;2.10;;;;;;;7.99;94.63;92822.16;5061160;28;20461;-76
2022/11/09 01:00:20;;;;;;;4.85;2.40;;;;;;;8.01;97.14;92822.66;5049693;28;20041;-76
2022/11/09 01:02:46;;;;;;;4.78;1.90;;;;;;;8.02;96.50;92826.84;5032322;28;20115;-76
2022/11/09 01:05:12;;;;;;;4.68;1.75;;;;;;;8.03;95.82;92823.19;5038778;28;20111;-76
2022/11/09 01:07:38;;;;;;;6.03;2.00;;;;;;;8.04;95.99;92814.34;5071617;28;20048;-76
2022/11/09 01:10:07;;;;;;;4.82;2.63;;;;;;;8.04;95.73;92806.53;5068720;28;20490;-76
2022/11/09 01:12:33;;;;;;;33.08;14.32;;;;;;;8.06;96.75;92803.63;5069457;28;20041;-76
2022/11/09 01:14:59;;;;;;;47.55;19.33;;;;;;;8.09;97.86;92805.75;5063826;28;20032;-76
2022/11/09 01:17:25;;;;;;;51.92;19.95;;;;;;;8.08;97.28;92804.97;5050535;28;20491;-76
2022/11/09 01:19:52;;;;;;;21.73;9.77;;;;;;;8.10;97.61;92807.28;5051462;28;20061;-76
2022/11/09 01:22:20;;;;;;;11.73;5.18;;;;;;;8.09;96.83;92805.75;5049847;28;20076;-76
2022/11/09 01:24:46;;;;;;;8.23;3.42;;;;;;;8.11;96.53;92808.88;5049360;28;20044;-76
2022/11/09 01:27:12;;;;;;;4.97;2.60;;;;;;;8.07;96.54;92797.38;5052132;28;20029;-76
2022/11/09 01:29:37;;;;;;;6.50;3.00;;;;;;;8.12;95.95;92816.41;5054755;28;20025;-76
2022/11/09 01:32:03;;;;;;;4.28;2.50;;;;;;;8.13;95.65;92820.59;5061103;28;20044;-76
2022/11/09 01:34:30;;;;;;;4.03;1.90;;;;;;;8.14;96.48;92813.53;5051864;28;20025;-76
2022/11/09 01:36:56;;;;;;;3.25;1.80;;;;;;;8.17;96.10;92802.59;5051276;28;20052;-76
2022/11/09 01:39:21;;;;;;;4.45;1.80;;;;;;;8.19;96.66;92804.94;5063261;28;20409;-76
2022/11/09 01:41:47;;;;;;;5.80;2.08;;;;;;;8.20;96.67;92811.72;5059536;28;20102;-76
2022/11/09 01:44:16;;;;;;;3.00;1.60;;;;;;;8.20;95.99;92804.69;5052993;28;20087;-76
2022/11/09 01:46:53;;;;;;;4.80;1.85;;;;;;;8.23;96.46;92811.19;5054582;28;20039;-76
2022/11/09 01:49:42;;;;;;;2.75;1.60;;;;;;;8.24;97.00;92800.50;5063789;28;20037;-76
2022/11/09 01:52:23;;;;;;;3.30;1.80;;;;;;;8.24;97.30;92795.28;5032532;28;20095;-76
2022/11/09 01:54:56;;;;;;;4.03;1.80;;;;;;;8.24;97.37;92795.28;5052262;28;20048;-76
2022/11/09 01:57:32;;;;;;;2.70;1.40;;;;;;;8.26;96.53;92793.19;5059686;28;20517;-76
2022/11/09 02:00:16;;;;;;;2.92;1.67;;;;;;;8.27;96.79;92788.75;5064340;28;20080;-76
2022/11/09 02:02:51;;;;;;;3.80;1.80;;;;;;;8.25;96.77;92783.81;5069864;28;20317;-76
2022/11/09 02:05:22;;;;;;;4.93;1.60;;;;;;;8.26;97.44;92779.34;5048238;28;20427;-76
2022/11/09 02:07:51;;;;;;;4.85;1.70;;;;;;;8.28;97.14;92777.28;5036180;28;20029;-76
2022/11/09 02:10:32;;;;;;;3.58;1.70;;;;;;;8.29;96.80;92782.22;5057254;28;20041;-76
2022/11/09 02:13:01;;;;;;;3.63;1.80;;;;;;;8.28;97.46;92779.88;5065429;28;20056;-76
2022/11/09 02:15:27;;;;;;;4.82;1.65;;;;;;;8.29;96.99;92778.84;5065300;28;20191;-76
2022/11/09 02:17:54;;;;;;;3.83;1.70;;;;;;;8.29;96.70;92787.44;5053167;28;20048;-76
2022/11/09 02:20:22;;;;;;;3.90;1.73;;;;;;;8.29;96.13;92784.06;5050850;28;20040;-76
2022/11/09 02:22:47;;;;;;;3.80;1.80;;;;;;;8.29;95.82;92784.06;5056438;28;20067;-76
2022/11/09 02:25:14;;;;;;;2.55;1.63;;;;;;;8.32;95.90;92773.09;5048525;28;20028;-76
2022/11/09 02:27:42;;;;;;;2.83;1.70;;;;;;;8.31;95.94;92764.50;5050779;28;20117;-76
2022/11/09 02:30:08;;;;;;;3.10;1.75;;;;;;;8.35;95.90;92769.94;5048168;28;20367;-76
2022/11/09 02:32:34;;;;;;;2.72;1.65;;;;;;;8.36;95.82;92770.75;5057351;28;20047;-76
2022/11/09 02:35:00;;;;;;;3.25;1.70;;;;;;;8.37;96.55;92780.13;5048490;28;20032;-76
2022/11/09 02:37:27;;;;;;;3.92;1.70;;;;;;;8.36;97.05;92774.13;5048754;28;20398;-76
2022/11/09 02:39:55;;;;;;;3.72;1.70;;;;;;;8.34;96.96;92771.78;5032555;28;20182;-76
2022/11/09 02:42:22;;;;;;;4.03;1.80;;;;;;;8.36;96.16;92763.69;5061539;28;20127;-76
2022/11/09 02:44:58;;;;;;;4.53;1.85;;;;;;;8.36;95.79;92760.31;5068231;28;20055;-76
2022/11/09 02:47:24;;;;;;;2.85;1.60;;;;;;;8.36;96.49;92760.31;5062527;28;20048;-76
2022/11/09 02:49:50;;;;;;;4.45;1.73;;;;;;;8.36;96.69;92758.47;5067196;28;20032;-76
2022/11/09 02:52:16;;;;;;;3.60;1.50;;;;;;;8.37;97.56;92759.25;5054335;28;20033;-76
2022/11/09 02:54:44;;;;;;;2.63;1.55;;;;;;;8.37;97.89;92767.09;5056123;28;20032;-76
2022/11/09 02:57:10;;;;;;;4.05;1.80;;;;;;;8.38;98.19;92763.44;5049039;28;20049;-76
2022/11/09 02:59:36;;;;;;;5.35;1.63;;;;;;;8.38;98.31;92771.28;5050101;28;20029;-76
2022/11/09 03:02:03;;;;;;;4.32;1.85;;;;;;;8.36;98.54;92773.34;5047984;28;20067;-76
2022/11/09 03:04:30;;;;;;;5.97;1.73;;;;;;;8.34;98.92;92771.00;5049969;28;20044;-76
2022/11/09 03:06:56;;;;;;;4.47;1.65;;;;;;;8.37;98.57;92778.28;5034321;28;20040;-76
2022/11/09 03:09:22;;;;;;;6.60;1.70;;;;;;;8.36;98.61;92771.53;5048916;28;20048;-76
2022/11/09 03:11:49;;;;;;;2.97;1.60;;;;;;;8.36;98.18;92776.75;5055822;28;20041;-76
2022/11/09 03:14:15;;;;;;;3.50;1.55;;;;;;;8.37;98.40;92780.91;5034894;28;20559;-76
2022/11/09 03:16:47;;;;;;;3.17;1.65;;;;;;;8.36;99.27;92784.56;5051000;28;20490;-76
2022/11/09 03:19:14;;;;;;;3.45;1.80;;;;;;;8.36;99.15;92776.75;5047444;28;20119;-76
2022/11/09 03:21:40;;;;;;;4.57;1.75;;;;;;;8.35;99.68;92772.56;5066580;28;20132;-76
2022/11/09 03:24:06;;;;;;;7.15;1.80;;;;;;;8.34;99.61;92771.78;5028323;28;20502;-76
2022/11/09 03:26:34;;;;;;;3.95;1.63;;;;;;;8.33;99.14;92770.22;5033599;28;20036;-76
2022/11/09 03:28:59;;;;;;;4.32;1.80;;;;;;;8.34;99.01;92765.78;5061552;28;20117;-76
2022/11/09 03:31:25;;;;;;;4.70;1.73;;;;;;;8.30;98.39;92754.31;5027379;28;20037;-76
2022/11/09 03:33:53;;;;;;;4.32;1.60;;;;;;;8.36;97.26;92760.31;5058364;28;20395;-76
2022/11/09 03:36:18;;;;;;;4.07;1.90;;;;;;;8.36;96.25;92758.47;5062063;28;20044;-76
2022/11/09 03:38:44;;;;;;;7.57;1.60;;;;;;;8.38;95.46;92756.41;5057655;28;20123;-76
2022/11/09 03:41:10;;;;;;;2.30;1.52;;;;;;;8.41;94.43;92755.09;5049610;28;20052;-76
2022/11/09 03:43:35;;;;;;;2.55;1.45;;;;;;;8.44;94.01;92744.13;5058370;28;20078;-76
2022/11/09 03:46:01;;;;;;;4.25;1.75;;;;;;;8.45;93.57;92740.50;5053876;28;20486;-76
2022/11/09 03:48:26;;;;;;;2.90;1.50;;;;;;;8.48;94.06;92748.53;5055571;28;20051;-76
2022/11/09 03:50:52;;;;;;;2.83;1.60;;;;;;;8.47;94.70;92744.38;5049297;28;20556;-76
2022/11/09 03:53:17;;;;;;;4.50;1.65;;;;;;;8.48;95.63;92745.94;5056665;28;20063;-76
2022/11/09 03:55:43;;;;;;;3.15;1.55;;;;;;;8.49;95.67;92752.72;5049440;28;20025;-76
2022/11/09 03:58:11;;;;;;;3.35;1.55;;;;;;;8.58;93.85;92749.56;5054947;28;20048;-76
2022/11/09 04:00:37;;;;;;;2.90;1.63;;;;;;;8.57;92.21;92746.16;5058799;28;20032;-76
2022/11/09 04:03:03;;;;;;;3.40;1.50;;;;;;;8.56;93.86;92742.00;5066830;28;20032;-76
2022/11/09 04:05:28;;;;;;;4.72;1.60;;;;;;;8.55;94.21;92743.81;5050983;28;20513;-76
2022/11/09 04:07:56;;;;;;;3.70;1.50;;;;;;;8.53;95.03;92742.53;5053824;28;20132;-76
2022/11/09 04:10:24;;;;;;;4.95;1.70;;;;;;;8.51;94.93;92737.59;5048292;28;20035;-76
2022/11/09 04:12:50;;;;;;;4.90;1.70;;;;;;;8.51;95.04;92737.59;5059313;28;20043;-76
2022/11/09 04:15:15;;;;;;;3.20;1.60;;;;;;;8.49;94.80;92739.69;5047912;28;20041;-76
2022/11/09 04:17:43;;;;;;;4.53;1.50;;;;;;;8.45;95.29;92736.03;5035918;28;20028;-76
2022/11/09 04:20:09;;;;;;;3.38;1.65;;;;;;;8.48;94.56;92745.94;5055450;28;20048;-76
2022/11/09 04:22:35;;;;;;;4.32;2.08;;;;;;;8.48;94.20;92745.16;5048823;28;20040;-76
2022/11/09 04:25:00;;;;;;;4.55;1.70;;;;;;;8.49;93.53;92747.53;5043381;28;20738;-76
2022/11/09 04:27:26;;;;;;;3.58;1.70;;;;;;;8.48;93.58;92756.38;5059205;28;20044;-76
2022/11/09 04:29:51;;;;;;;3.47;1.80;;;;;;;8.49;93.29;92752.72;5046267;28;20093;-76
2022/11/09 04:32:17;;;;;;;4.07;1.50;;;;;;;8.51;92.48;92753.25;5070261;28;20103;-76
2022/11/09 04:34:42;;;;;;;2.08;1.33;;;;;;;8.52;92.05;92748.81;5063260;28;20045;-76
2022/11/09 04:37:08;;;;;;;2.70;1.45;;;;;;;8.51;91.72;92750.66;5050380;28;20184;-76
2022/11/09 04:39:34;;;;;;;3.25;1.58;;;;;;;8.52;92.29;92749.59;5069145;28;20031;-76
2022/11/09 04:42:00;;;;;;;2.45;1.40;;;;;;;8.50;92.59;92749.06;5050935;28;20051;-76
2022/11/09 04:44:27;;;;;;;2.75;1.60;;;;;;;8.51;92.28;92745.44;5052536;28;20045;-76
2022/11/09 04:46:53;;;;;;;4.07;1.85;;;;;;;8.53;92.15;92750.34;5048765;28;20454;-76
2022/11/09 04:49:19;;;;;;;3.20;1.70;;;;;;;8.53;92.87;92752.97;5048048;28;20049;-76
2022/11/09 04:51:44;;;;;;;3.60;1.63;;;;;;;8.52;93.07;92752.19;5047377;28;20113;-76
2022/11/09 04:54:10;;;;;;;2.92;1.60;;;;;;;8.53;93.57;92750.34;5062443;28;20024;-76
2022/11/09 04:56:36;;;;;;;3.90;1.77;;;;;;;8.53;94.40;92745.94;5069993;28;20045;-76
2022/11/09 04:59:02;;;;;;;3.65;1.60;;;;;;;8.53;94.09;92738.13;5061813;28;20041;-76
2022/11/09 05:01:27;;;;;;;3.15;1.40;;;;;;;8.55;90.73;92743.03;5055156;28;20037;-76
2022/11/09 05:03:53;;;;;;;3.33;1.83;;;;;;;8.56;90.17;92742.00;5061234;28;20040;-76
2022/11/09 05:06:30;;;;;;;2.85;1.80;;;;;;;8.57;90.95;92737.56;5048743;28;20140;-76
2022/11/09 05:08:59;;;;;;;2.97;1.60;;;;;;;8.56;91.55;92731.56;5068799;28;20400;-77
2022/11/09 05:11:24;;;;;;;3.03;1.58;;;;;;;8.55;92.93;92736.00;5046174;28;20402;-77
2022/11/09 05:13:50;;;;;;;3.58;1.55;;;;;;;8.53;93.37;92732.09;5051534;28;20132;-76
2022/11/09 05:16:16;;;;;;;4.35;1.80;;;;;;;8.53;93.61;92732.91;5049166;28;20021;-76
2022/11/09 05:18:43;;;;;;;3.53;1.40;;;;;;;8.50;94.11;92733.41;5048392;28;20428;-76
2022/11/09 05:21:08;;;;;;;4.32;1.70;;;;;;;8.51;94.89;92735.00;5048598;28;20025;-76
2022/11/09 05:26:18;;;;;;;3.10;1.50;;;;;;;8.50;94.22;92737.84;5048971;28;20024;-76
2022/11/09 05:28:43;;;;;;;2.78;1.52;;;;;;;8.50;94.33;92741.25;5053748;28;20521;-76
2022/11/09 05:31:09;;;;;;;4.65;1.60;;;;;;;8.50;94.54;92743.06;5052953;28;20040;-77
2022/11/09 05:33:35;;;;;;;4.07;1.60;;;;;;;8.48;94.60;92735.50;5051315;28;20079;-76
2022/11/09 05:36:00;;;;;;;3.55;1.70;;;;;;;8.48;94.01;92745.94;5047645;28;20037;-76
2022/11/09 05:38:26;;;;;;;3.45;1.67;;;;;;;8.49;93.62;92751.97;5040886;28;20059;-76
2022/11/09 05:40:52;;;;;;;4.75;1.90;;;;;;;8.48;93.27;92755.59;5049609;28;20475;-75
2022/11/09 05:43:19;;;;;;;4.35;1.70;;;;;;;8.48;88.06;92758.22;5031355;28;20106;-75
2022/11/09 05:45:45;;;;;;;3.00;1.60;;;;;;;8.50;88.89;92753.50;5057656;28;21096;-76
2022/11/09 05:48:13;;;;;;;4.03;1.77;;;;;;;8.48;89.22;92745.94;5043434;28;20029;-76
2022/11/09 05:50:40;;;;;;;3.60;1.60;;;;;;;8.50;89.25;92754.28;5050651;28;20032;-76
2022/11/09 05:53:14;;;;;;;5.50;1.70;;;;;;;8.49;89.25;92755.34;5068177;28;20520;-76
2022/11/09 05:55:39;;;;;;;3.63;1.63;;;;;;;8.50;90.00;92759.50;5034005;28;20033;-76
2022/11/09 05:58:06;;;;;;;4.72;1.80;;;;;;;8.50;90.35;92753.50;5033415;28;20033;-76
2022/11/09 06:00:31;;;;;;;5.82;1.63;;;;;;;8.49;90.45;92757.19;5047369;28;20036;-76
2022/11/09 06:03:05;;;;;;;4.15;1.65;;;;;;;8.45;90.39;92749.09;5052208;28;20684;-76
2022/11/09 06:05:33;;;;;;;3.33;1.63;;;;;;;8.48;90.42;92751.16;5051011;28;20037;-76
2022/11/09 06:08:10;;;;;;;3.55;1.67;;;;;;;8.43;90.00;92747.81;5049812;28;20399;-76
2022/11/09 06:10:35;;;;;;;4.75;1.80;;;;;;;8.46;90.18;92752.47;5052117;28;20041;-75
2022/11/09 06:13:01;;;;;;;4.25;1.75;;;;;;;8.45;90.55;92756.91;5052112;28;20044;-76
2022/11/09 06:15:27;;;;;;;2.90;1.67;;;;;;;8.49;89.61;92765.00;5051998;28;20033;-77
2022/11/09 06:17:57;;;;;;;5.47;1.77;;;;;;;8.48;89.84;92772.03;5052382;28;20171;-76
2022/11/09 06:20:23;;;;;;;4.10;1.60;;;;;;;8.47;90.16;92765.25;5038335;28;20386;-76
2022/11/09 06:22:57;;;;;;;3.33;1.63;;;;;;;8.46;89.72;92768.91;5052016;28;20033;-75
2022/11/09 06:25:23;;;;;;;3.28;1.70;;;;;;;8.48;89.52;92761.59;5050150;28;20029;-75
2022/11/09 06:27:49;;;;;;;6.03;2.00;;;;;;;8.48;89.94;92769.41;5054638;28;20120;-76
2022/11/09 06:30:15;;;;;;;3.55;1.67;;;;;;;8.50;90.07;92775.16;5052068;28;20020;-75
2022/11/09 06:32:41;;;;;;;2.97;1.63;;;;;;;8.52;89.81;92769.69;5051749;28;20037;-75
2022/11/09 06:35:07;;;;;;;2.38;1.50;;;;;;;8.51;89.80;92765.50;5051606;28;20041;-75
2022/11/09 06:37:32;;;;;;;3.03;1.67;;;;;;;8.52;89.77;92767.84;5051500;28;20056;-75
2022/11/09 06:39:58;;;;;;;7.93;1.77;;;;;;;8.54;89.66;92770.19;5035105;28;20614;-75
2022/11/09 06:42:24;;;;;;;3.97;1.92;;;;;;;8.55;90.27;92775.13;5047753;28;20093;-75
2022/11/09 06:44:49;;;;;;;4.82;1.80;;;;;;;8.53;90.21;92773.84;5050249;28;20403;-75
2022/11/09 06:47:15;;;;;;;3.28;1.75;;;;;;;8.55;90.56;92776.97;5065313;28;20045;-75
2022/11/09 06:49:40;;;;;;;2.40;1.50;;;;;;;8.55;90.55;92779.56;5070276;28;20398;-75
2022/11/09 06:52:06;;;;;;;4.93;2.00;;;;;;;8.57;88.82;92784.53;5060219;28;20463;-76
2022/11/09 06:54:32;;;;;;;7.53;1.90;;;;;;;8.58;87.13;92786.91;5065586;28;20050;-76
2022/11/09 06:56:58;;;;;;;7.65;2.20;;;;;;;8.60;87.93;92791.81;5061217;28;20039;-75
2022/11/09 06:59:23;;;;;;;3.60;1.85;;;;;;;8.62;88.66;92787.13;5048335;28;20043;-76
2022/11/09 07:01:51;;;;;;;8.32;1.95;;;;;;;8.64;89.23;92792.88;5039375;28;20041;-77
2022/11/09 07:04:17;;;;;;;6.28;2.00;;;;;;;8.62;89.67;92797.56;5040685;28;20090;-76
2022/11/09 07:06:43;;;;;;;4.53;1.95;;;;;;;8.64;89.98;92790.25;5051558;28;20027;-77
2022/11/09 07:09:09;;;;;;;5.80;1.77;;;;;;;8.64;89.90;92798.84;5052721;28;20040;-77
2022/11/09 07:11:35;;;;;;;2.70;1.63;;;;;;;8.62;90.35;92798.34;5067137;28;20037;-77
2022/11/09 07:14:01;;;;;;;5.35;1.92;;;;;;;8.65;90.56;92802.28;5035024;28;20078;-78
2022/11/09 07:16:28;;;;;;;6.25;1.85;;;;;;;8.66;90.74;92804.59;5062748;28;20458;-76
2022/11/09 07:18:53;;;;;;;3.90;1.90;;;;;;;8.64;91.31;92811.13;5053879;28;20036;-77
2022/11/09 07:21:19;;;;;;;3.63;1.80;;;;;;;8.68;90.93;92807.72;5060155;28;20032;-77
2022/11/09 07:23:47;;;;;;;3.90;1.85;;;;;;;8.69;90.74;92803.28;5056766;28;20116;-77
2022/11/09 07:26:13;;;;;;;4.78;1.80;;;;;;;8.72;90.87;92810.59;5051258;28;20029;-77
2022/11/09 07:28:39;;;;;;;6.05;2.13;;;;;;;8.72;90.44;92811.38;5056013;28;20164;-77
2022/11/09 07:31:04;;;;;;;2.95;1.48;;;;;;;8.71;90.31;92807.22;5051362;28;20127;-76
2022/11/09 07:33:32;;;;;;;5.53;1.60;;;;;;;8.78;90.36;92812.16;5051312;28;20086;-76
2022/11/09 07:35:59;;;;;;;4.43;1.60;;;;;;;8.79;90.30;92811.09;5051072;28;20078;-76
2022/11/09 07:38:25;;;;;;;3.08;1.75;;;;;;;8.84;91.03;92810.28;5049612;28;20090;-77
2022/11/09 07:40:50;;;;;;;6.28;2.08;;;;;;;8.86;91.95;92813.41;5051527;28;20040;-76
2022/11/09 07:43:17;;;;;;;3.63;1.92;;;;;;;8.84;92.69;92815.50;5049178;28;20079;-76
2022/11/09 07:45:47;;;;;;;4.22;1.77;;;;;;;8.85;93.19;92810.03;5031138;28;20041;-76
2022/11/09 07:48:14;;;;;;;4.80;2.00;;;;;;;8.85;94.20;92806.63;5048362;28;20037;-76
2022/11/09 07:50:40;;;;;;;4.65;1.80;;;;;;;8.86;94.80;92814.19;5050892;28;20120;-76
2022/11/09 07:53:07;;;;;;;3.97;1.88;;;;;;;8.89;94.96;92808.44;5050537;28;20037;-77
2022/11/09 07:55:33;;;;;;;4.30;1.83;;;;;;;8.91;95.36;92811.56;5049044;28;20115;-76
2022/11/09 07:58:02;;;;;;;7.70;2.20;;;;;;;8.90;95.64;92817.06;5050199;28;20041;-76
2022/11/09 08:00:30;;;;;;;5.97;1.92;;;;;;;8.90;96.13;92815.22;5048769;28;20120;-76
2022/11/09 08:02:56;;;;;;;4.90;1.95;;;;;;;8.95;96.71;92823.03;5030132;28;20045;-76
2022/11/09 08:05:42;;;;;;;4.22;2.30;;;;;;;9.01;96.39;92826.41;5037447;28;20029;-77
2022/11/09 08:08:10;;;;;;;3.97;1.80;;;;;;;9.01;96.88;92820.41;5032840;28;20131;-76
2022/11/09 08:10:38;;;;;;;3.60;1.80;;;;;;;9.04;96.44;92825.09;5049122;28;20051;-76
2022/11/09 08:13:07;;;;;;;3.55;1.90;;;;;;;9.08;96.58;92834.75;5038128;28;20676;-76
2022/11/09 08:15:33;;;;;;;6.28;1.88;;;;;;;9.10;96.45;92829.25;5035216;28;20021;-76
2022/11/09 08:18:04;;;;;;;4.65;2.33;;;;;;;9.14;96.76;92835.47;5031086;28;20041;-77
2022/11/09 08:20:30;;;;;;;6.22;1.83;;;;;;;9.17;96.76;92830.50;5033771;28;20104;-76
2022/11/09 08:22:56;;;;;;;7.07;2.00;;;;;;;9.20;97.27;92829.19;5050473;28;20119;-76
2022/11/09 08:25:22;;;;;;;3.78;1.75;;;;;;;9.24;98.56;92835.44;5047850;28;20061;-77
2022/11/09 08:27:48;;;;;;;6.03;2.00;;;;;;;9.26;99.31;92833.34;5032018;28;20041;-76
2022/11/09 08:30:16;;;;;;;6.07;2.20;;;;;;;9.27;100.00;92829.69;5035258;28;20079;-77
2022/11/09 08:32:43;;;;;;;3.80;1.98;;;;;;;9.27;98.87;92832.28;5048900;28;20029;-76
2022/11/09 08:35:15;;;;;;;4.55;1.95;;;;;;;9.24;95.29;92834.69;5052523;28;20055;-77
2022/11/09 08:37:41;;;;;;;3.65;2.03;;;;;;;9.19;94.53;92830.25;5032681;28;20454;-77
2022/11/09 08:40:08;;;;;;;2.95;1.70;;;;;;;9.18;92.54;92831.28;5034049;28;20053;-77
2022/11/09 08:42:33;;;;;;;4.25;1.98;;;;;;;9.18;93.23;92820.84;5034025;28;20076;-77
2022/11/09 08:44:59;;;;;;;5.80;2.20;;;;;;;9.27;94.04;92821.84;5052585;28;20139;-77
2022/11/09 08:47:44;;;;;;;3.55;1.92;;;;;;;9.29;96.89;92822.34;5036933;28;20560;-77
2022/11/09 08:50:11;;;;;;;8.85;2.10;;;;;;;9.36;96.51;92817.59;5034317;28;20033;-77
2022/11/09 08:52:37;;;;;;;3.78;1.65;;;;;;;9.41;96.71;92805.56;5035366;28;20211;-76
2022/11/09 08:55:03;;;;;;;5.38;1.92;;;;;;;9.51;98.77;92808.91;5051481;28;20067;-77
2022/11/09 08:57:29;;;;;;;3.85;1.90;;;;;;;9.60;99.84;92816.97;5039499;28;20132;-76
2022/11/09 08:59:55;;;;;;;4.47;2.00;;;;;;;9.69;100.00;92815.31;5017557;28;20048;-76
2022/11/09 09:02:39;;;;;;;5.40;2.25;;;;;;;9.74;100.00;92812.66;5053013;28;20029;-76
2022/11/09 09:05:05;;;;;;;4.38;2.03;;;;;;;9.79;100.00;92819.69;5054921;28;20040;-77
2022/11/09 09:07:30;;;;;;;5.95;2.30;;;;;;;9.84;100.00;92814.44;5052443;28;20111;-76
2022/11/09 09:09:56;;;;;;;4.25;2.10;;;;;;;9.90;100.00;92813.34;5050907;28;20029;-76
2022/11/09 09:12:22;;;;;;;4.45;2.42;;;;;;;9.95;100.00;92818.56;5053918;28;20033;-76
2022/11/09 09:14:49;;;;;;;5.28;2.47;;;;;;;10.11;89.58;92827.06;5035808;28;20037;-76
2022/11/09 09:17:34;;;;;;;4.82;1.90;;;;;;;9.88;87.09;92819.91;5052457;28;20021;-76
2022/11/09 09:20:00;;;;;;;5.90;1.75;;;;;;;9.85;88.64;92823.06;5040771;28;20053;-76
2022/11/09 09:22:25;;;;;;;4.40;1.83;;;;;;;9.80;90.29;92818.66;5039733;28;20041;-76
2022/11/09 09:24:51;;;;;;;4.13;2.00;;;;;;;9.81;90.80;92817.59;5052231;28;20024;-76
2022/11/09 09:27:16;;;;;;;4.63;2.28;;;;;;;9.89;91.41;92829.31;5050689;28;20035;-76
2022/11/09 09:29:42;;;;;;;5.22;2.35;;;;;;;9.89;92.66;92829.31;5052612;28;20292;-76
2022/11/09 09:32:08;;;;;;;4.18;2.20;;;;;;;9.90;93.63;92829.03;5055725;28;20478;-76
2022/11/09 09:34:33;;;;;;;6.40;2.20;;;;;;;9.93;95.18;92831.13;5055846;28;20043;-76
2022/11/09 09:37:01;;;;;;;8.73;4.32;;;;;;;9.94;93.34;92827.44;5051341;28;20033;-76
2022/11/09 09:39:26;;;;;;;4.07;2.10;;;;;;;9.80;90.77;92827.28;5053073;28;20494;-76
2022/11/09 09:41:57;;;;;;;4.13;1.90;;;;;;;9.66;90.77;92823.72;5053195;28;20033;-76
2022/11/09 09:44:31;;;;;;;5.32;2.03;;;;;;;9.66;90.93;92830.75;5040684;28;20049;-76
2022/11/09 09:47:06;;;;;;;5.05;2.03;;;;;;;9.78;91.18;92837.22;5047712;28;20041;-76
2022/11/09 09:49:35;;;;;;;4.55;2.30;;;;;;;9.74;90.35;92838.81;5051100;28;20119;-78
2022/11/09 09:52:35;;;;;;;4.70;2.40;;;;;;;9.70;91.37;92837.00;5035301;28;20395;-77
2022/11/09 09:55:16;;;;;;;5.93;2.92;;;;;;;9.71;91.99;92831.53;5035851;28;20036;-77
2022/11/09 09:57:48;;;;;;;4.33;2.30;;;;;;;9.83;92.50;92841.63;5066885;28;20045;-77
2022/11/09 10:00:23;;;;;;;10.90;2.97;;;;;;;9.91;94.28;92837.69;5055444;28;20294;-77
2022/11/09 10:02:50;;;;;;;14.40;2.83;;;;;;;9.98;94.42;92828.44;5053683;28;20048;-77
2022/11/09 10:05:18;;;;;;;4.95;2.35;;;;;;;10.09;94.23;92837.00;5036602;28;20112;-77
2022/11/09 10:07:50;;;;;;;4.55;2.00;;;;;;;10.11;92.61;92832.28;5053666;28;20062;-76
2022/11/09 10:10:27;;;;;;;5.00;2.10;;;;;;;10.10;92.28;92838.56;5040356;28;20036;-77
2022/11/09 10:16:54;;;;;;;4.47;2.17;;;;;;;10.15;92.11;92828.03;5053767;28;20033;-76
2022/11/09 10:19:58;;;;;;;5.07;2.10;;;;;;;10.23;91.94;92825.91;5045340;28;20129;-76
2022/11/09 10:25:44;;;;;;;3.83;2.05;;;;;;;10.33;92.37;92829.22;5046869;28;20083;-77
2022/11/09 10:28:13;;;;;;;5.70;2.00;;;;;;;10.51;89.77;92830.38;5055293;28;20054;-77
2022/11/09 10:30:59;;;;;;;7.38;2.35;;;;;;;10.30;91.35;92829.00;5056268;28;20412;-77
2022/11/09 10:33:27;;;;;;;6.18;2.25;;;;;;;10.12;92.24;92833.84;5064835;28;20112;-77
2022/11/09 10:36:20;;;;;;;4.70;2.22;;;;;;;10.21;91.16;92831.41;5056119;28;20029;-77
2022/11/09 10:38:49;;;;;;;4.65;2.20;;;;;;;9.98;91.41;92827.69;5055323;28;20068;-77
2022/11/09 10:45:37;;;;;;;5.22;2.60;;;;;;;9.77;93.63;92827.03;5052591;28;20043;-77
2022/11/09 10:48:42;;;;;;;5.47;2.42;;;;;;;9.69;93.42;92825.78;5056136;28;20533;-78
2022/11/09 10:51:33;;;;;;;5.45;2.83;;;;;;;9.60;94.96;92827.41;5052217;28;20094;-77
2022/11/09 10:54:20;;;;;;;4.47;2.47;;;;;;;9.57;96.17;92826.13;5034940;28;20518;-77
2022/11/09 10:57:23;;;;;;;4.70;2.60;;;;;;;9.60;95.71;92819.56;5037066;28;20059;-78
2022/11/09 11:00:16;;;;;;;5.00;2.50;;;;;;;9.64;96.45;92822.44;5051332;28;20412;-77
2022/11/09 11:06:43;;;;;;;4.38;2.20;;;;;;;9.67;100.00;92812.19;5035077;28;20040;-77
2022/11/09 11:09:29;;;;;;;5.10;2.30;;;;;;;9.70;100.00;92816.88;5033940;28;20060;-77
2022/11/09 11:12:20;;;;;;;6.78;2.38;;;;;;;9.73;100.00;92816.34;5050128;28;20048;-78
2022/11/09 11:18:46;;;;;;;5.75;2.50;;;;;;;9.60;100.00;92809.13;5053624;28;20124;-78
2022/11/09 11:25:25;;;;;;;4.93;2.50;;;;;;;9.51;98.82;92810.75;5034250;28;20395;-77
2022/11/09 11:28:18;;;;;;;5.10;2.58;;;;;;;9.24;100.00;92809.31;5041570;28;20471;-76
2022/11/09 11:31:03;;;;;;;6.63;2.67;;;;;;;9.08;100.00;92807.84;5045217;28;20048;-77
2022/11/09 11:33:48;;;;;;;4.82;2.95;;;;;;;9.01;100.00;92804.75;5050781;28;20048;-76
2022/11/09 11:37:11;;;;;;;4.88;2.75;;;;;;;9.00;100.00;92808.41;5045100;28;20052;-78
2022/11/09 11:40:03;;;;;;;5.82;2.63;;;;;;;9.05;100.00;92801.34;5054046;28;20090;-77
2022/11/09 11:42:57;;;;;;;5.40;2.97;;;;;;;9.05;100.00;92800.53;5055562;28;20047;-77
2022/11/09 11:46:20;;;;;;;5.05;2.83;;;;;;;9.06;100.00;92807.34;5052505;28;20167;-78
2022/11/09 11:49:29;;;;;;;5.80;3.33;;;;;;;9.34;100.00;92801.44;5065374;28;20456;-77
2022/11/09 11:52:13;;;;;;;4.55;2.80;;;;;;;9.18;100.00;92789.50;5045347;28;20055;-77
2022/11/09 11:55:15;;;;;;;5.88;3.30;;;;;;;9.18;100.00;92790.28;5045173;28;20106;-78
2022/11/09 11:58:25;;;;;;;7.35;3.65;;;;;;;9.13;100.00;92785.09;5046197;28;20060;-78
2022/11/09 12:01:24;;;;;;;5.70;3.17;;;;;;;9.08;100.00;92784.34;5034997;28;20114;-77
2022/11/09 12:04:24;;;;;;;11.68;3.20;;;;;;;9.17;100.00;92772.28;5041659;28;20517;-77
2022/11/09 12:07:28;;;;;;;6.97;3.35;;;;;;;9.10;100.00;92771.81;5048151;28;20434;-77
2022/11/09 12:10:27;;;;;;;7.10;3.28;;;;;;;9.11;100.00;92774.13;5038320;28;20122;-76
2022/11/09 12:13:38;;;;;;;7.15;3.88;;;;;;;8.96;100.00;92776.81;5051683;28;20056;-77
2022/11/09 12:16:28;;;;;;;9.75;4.20;;;;;;;8.97;100.00;92760.09;5032490;28;20475;-76
2022/11/09 12:19:54;;;;;;;10.07;4.32;;;;;;;8.98;100.00;92760.88;5040561;28;20047;-77
2022/11/09 12:22:40;;;;;;;7.07;3.47;;;;;;;9.06;100.00;92768.16;5036364;28;20168;-77